createdAt,value
2017-10-05T00:00:51.474Z,1.30
2017-10-05T00:04:54.928Z,1.30
2017-10-05T00:08:58.768Z,1.30
2017-10-05T00:13:02.988Z,1.40
2017-10-05T00:17:07.515Z,1.50
2017-10-05T00:21:11.727Z,1.60
2017-10-05T00:25:15.564Z,1.50
2017-10-05T00:29:19.786Z,1.77
2017-10-05T00:33:24.326Z,1.70
2017-10-05T00:37:28.539Z,1.37
2017-10-05T00:41:33.070Z,1.77
2017-10-05T00:45:37.296Z,1.20
2017-10-05T00:49:41.829Z,1.40
2017-10-05T00:53:46.130Z,1.63
2017-10-05T00:57:49.878Z,1.20
2017-10-05T01:01:54.105Z,2.70
2017-10-05T01:05:58.635Z,1.43
2017-10-05T01:10:02.855Z,1.60
2017-10-05T01:14:07.364Z,1.37
2017-10-05T01:18:10.816Z,1.60
2017-10-05T01:22:14.613Z,1.60
2017-10-05T01:26:18.830Z,1.30
2017-10-05T01:30:23.376Z,1.60
2017-10-05T01:34:26.817Z,1.50
2017-10-05T01:38:30.587Z,1.47
2017-10-05T01:42:34.810Z,1.33
2017-10-05T01:46:39.342Z,1.40
2017-10-05T01:50:43.546Z,1.70
2017-10-05T01:54:47.391Z,1.60
2017-10-05T01:58:51.627Z,1.40
2017-10-05T02:02:55.421Z,1.50
2017-10-05T02:06:59.634Z,1.30
2017-10-05T02:11:03.506Z,1.50
2017-10-05T02:15:06.968Z,1.50
2017-10-05T02:19:11.507Z,1.53
2017-10-05T02:23:15.718Z,1.47
2017-10-05T02:27:19.538Z,1.10
2017-10-05T02:31:23.755Z,1.20
2017-10-05T02:35:27.600Z,1.53
2017-10-05T02:39:31.053Z,1.20
2017-10-05T02:43:34.828Z,1.30
2017-10-05T02:47:38.283Z,1.57
2017-10-05T02:51:42.135Z,1.40
2017-10-05T02:55:46.354Z,1.47
2017-10-05T02:59:50.893Z,1.10
2017-10-05T03:03:55.103Z,1.20
2017-10-05T03:07:59.645Z,1.50
2017-10-05T03:12:03.860Z,1.43
2017-10-05T03:16:08.501Z,1.30
2017-10-05T03:20:12.728Z,1.60
2017-10-05T03:24:17.263Z,1.80
2017-10-05T03:28:21.477Z,1.70
2017-10-05T03:32:26.022Z,1.50
2017-10-05T03:36:30.237Z,1.47
2017-10-05T03:40:34.766Z,1.63
2017-10-05T03:44:38.982Z,2.00
2017-10-05T03:48:42.821Z,1.57
2017-10-05T03:52:47.031Z,2.13
2017-10-05T03:56:51.570Z,1.40
2017-10-05T04:00:55.794Z,1.50
2017-10-05T04:05:00.370Z,1.47
2017-10-05T04:09:03.796Z,1.50
2017-10-05T04:13:07.541Z,1.20
2017-10-05T04:17:11.750Z,1.30
2017-10-05T04:21:15.493Z,1.70
2017-10-05T04:25:19.711Z,1.30
2017-10-05T04:29:24.251Z,1.63
2017-10-05T04:33:28.466Z,1.23
2017-10-05T04:37:33.000Z,1.20
2017-10-05T04:41:37.229Z,1.50
2017-10-05T04:45:41.763Z,1.10
2017-10-05T04:49:45.979Z,1.20
2017-10-05T04:53:50.499Z,1.50
2017-10-05T04:57:53.962Z,1.20
2017-10-05T05:01:57.755Z,1.17
2017-10-05T05:06:01.213Z,1.33
2017-10-05T05:10:05.058Z,1.30
2017-10-05T05:14:09.267Z,1.10
2017-10-05T05:18:13.082Z,1.30
2017-10-05T05:22:17.375Z,1.37
2017-10-05T05:26:21.138Z,1.30
2017-10-05T05:30:25.356Z,1.00
2017-10-05T05:34:29.908Z,1.27
2017-10-05T05:38:33.366Z,1.30
2017-10-05T05:42:37.122Z,1.00
2017-10-05T05:46:41.374Z,1.20
2017-10-05T05:50:45.111Z,1.20
2017-10-05T05:54:48.575Z,1.10
2017-10-05T05:58:53.103Z,0.97
2017-10-05T06:02:57.449Z,1.10
2017-10-05T06:07:01.245Z,1.00
2017-10-05T06:11:05.474Z,0.93
2017-10-05T06:15:09.275Z,1.00
2017-10-05T06:19:13.486Z,1.20
2017-10-05T06:23:17.319Z,1.20
2017-10-05T06:27:21.546Z,1.00
2017-10-05T06:31:26.074Z,0.80
2017-10-05T06:35:30.305Z,0.97
2017-10-05T06:39:34.843Z,0.90
2017-10-05T06:43:39.063Z,0.90
2017-10-05T06:47:43.596Z,0.80
2017-10-05T06:51:47.811Z,0.97
2017-10-05T06:55:52.394Z,0.83
2017-10-05T06:59:55.845Z,0.90
2017-10-05T07:03:59.582Z,0.87
2017-10-05T07:08:03.029Z,0.97
2017-10-05T07:12:06.790Z,1.00
2017-10-05T07:16:11.008Z,0.90
2017-10-05T07:20:15.559Z,0.93
2017-10-05T07:24:19.062Z,1.00
2017-10-05T07:28:23.600Z,0.93
2017-10-05T07:32:27.063Z,0.80
2017-10-05T07:36:30.916Z,0.80
2017-10-05T07:40:35.144Z,0.90
2017-10-05T07:44:39.676Z,1.10
2017-10-05T07:48:43.895Z,1.00
2017-10-05T07:52:48.436Z,0.90
2017-10-05T07:56:51.894Z,1.07
2017-10-05T08:00:55.657Z,1.00
2017-10-05T08:04:59.120Z,1.10
2017-10-05T08:09:02.973Z,1.27
2017-10-05T08:13:07.196Z,1.30
2017-10-05T08:17:11.727Z,1.13
2017-10-05T08:21:15.942Z,1.00
2017-10-05T08:25:20.595Z,1.40
2017-10-05T08:29:24.825Z,1.33
2017-10-05T08:33:28.741Z,1.57
2017-10-05T08:37:32.202Z,1.90
2017-10-05T08:41:36.050Z,1.10
2017-10-05T08:45:40.516Z,1.20
2017-10-05T08:49:44.302Z,1.53
2017-10-05T08:53:48.522Z,1.10
2017-10-05T08:57:53.069Z,1.53
2017-10-05T09:01:56.534Z,1.30
2017-10-05T09:06:00.371Z,1.00
2017-10-05T09:10:04.598Z,1.40
2017-10-05T09:14:09.148Z,1.30
2017-10-05T09:18:12.595Z,1.27
2017-10-05T09:22:16.366Z,1.07
2017-10-05T09:26:20.581Z,1.20
2017-10-05T09:30:25.127Z,1.03
2017-10-05T09:34:28.579Z,1.10
2017-10-05T09:38:32.334Z,1.07
2017-10-05T09:42:36.626Z,1.40
2017-10-05T09:46:40.484Z,0.90
2017-10-05T09:50:44.702Z,1.23
2017-10-05T09:54:49.247Z,1.20
2017-10-05T09:58:52.697Z,1.23
2017-10-05T10:02:56.575Z,1.20
2017-10-05T10:07:00.027Z,1.00
2017-10-05T10:11:03.879Z,1.20
2017-10-05T10:15:08.102Z,1.03
2017-10-05T10:19:12.647Z,1.00
2017-10-05T10:23:16.850Z,1.20
2017-10-05T10:27:20.690Z,0.80
2017-10-05T10:31:24.156Z,1.23
2017-10-05T10:35:27.908Z,1.07
2017-10-05T10:39:32.126Z,1.00
2017-10-05T10:43:36.663Z,0.97
2017-10-05T10:47:40.907Z,1.20
2017-10-05T10:51:44.704Z,1.20
2017-10-05T10:55:48.929Z,1.30
2017-10-05T10:59:53.463Z,1.20
2017-10-05T11:03:57.689Z,1.10
2017-10-05T11:08:02.210Z,0.93
2017-10-05T11:12:06.436Z,1.00
2017-10-05T11:16:10.972Z,1.00
2017-10-05T11:20:15.195Z,1.00
2017-10-05T11:24:19.731Z,1.40
2017-10-05T11:28:23.962Z,1.20
2017-10-05T11:32:27.773Z,1.00
2017-10-05T11:36:31.998Z,1.00
2017-10-05T11:40:36.502Z,1.23
2017-10-05T11:44:39.963Z,1.00
2017-10-05T11:48:43.752Z,0.90
2017-10-05T11:52:47.970Z,1.20
2017-10-05T11:56:52.509Z,1.00
2017-10-05T12:00:55.984Z,1.00
2017-10-05T12:04:59.836Z,1.10
2017-10-05T12:09:03.280Z,1.03
2017-10-05T12:13:07.155Z,1.10
2017-10-05T12:17:11.380Z,0.90
2017-10-05T12:21:15.195Z,0.80
2017-10-05T12:25:18.734Z,0.87
2017-10-05T12:29:22.519Z,1.10
2017-10-05T12:33:26.746Z,0.80
2017-10-05T12:37:31.276Z,0.90
2017-10-05T12:41:35.554Z,0.90
2017-10-05T12:45:39.319Z,0.90
2017-10-05T12:49:43.530Z,2.97
2017-10-05T12:53:48.071Z,1.00
2017-10-05T12:57:52.299Z,0.97
2017-10-05T13:01:56.102Z,1.30
2017-10-05T13:06:00.379Z,1.40
2017-10-05T13:10:04.151Z,1.10
2017-10-05T13:14:08.371Z,1.00
2017-10-05T13:18:12.907Z,1.07
2017-10-05T13:22:17.134Z,1.03
2017-10-05T13:26:21.667Z,1.00
2017-10-05T13:30:25.896Z,1.20
2017-10-05T13:34:29.712Z,1.07
2017-10-05T13:38:33.180Z,1.00
2017-10-05T13:42:37.044Z,0.90
2017-10-05T13:46:40.643Z,0.93
2017-10-05T13:50:45.180Z,1.10
2017-10-05T13:54:48.638Z,1.00
2017-10-05T13:58:52.501Z,0.93
2017-10-05T14:02:55.973Z,1.10
2017-10-05T14:06:59.820Z,1.10
2017-10-05T14:11:04.046Z,0.97
2017-10-05T14:15:07.786Z,0.90
2017-10-05T14:19:11.230Z,1.10
2017-10-05T14:23:15.070Z,0.97
2017-10-05T14:27:18.562Z,1.10
2017-10-05T14:31:22.404Z,0.90
2017-10-05T14:35:26.622Z,0.93
2017-10-05T14:39:31.160Z,0.93
2017-10-05T14:43:35.386Z,1.30
2017-10-05T14:47:39.910Z,1.00
2017-10-05T14:51:44.126Z,1.00
2017-10-05T14:55:47.959Z,0.90
2017-10-05T14:59:51.419Z,1.00
2017-10-05T15:03:55.170Z,0.90
2017-10-05T15:08:00.358Z,0.80
2017-10-05T15:12:04.103Z,0.90
2017-10-05T15:16:07.568Z,0.90
2017-10-05T15:20:11.351Z,0.93
2017-10-05T15:24:15.595Z,1.13
2017-10-05T15:28:19.406Z,1.00
2017-10-05T15:32:23.617Z,1.00
2017-10-05T15:36:28.160Z,1.00
2017-10-05T15:40:32.419Z,0.90
2017-10-05T15:44:36.204Z,0.80
2017-10-05T15:48:39.671Z,1.10
2017-10-05T15:52:43.527Z,0.80
2017-10-05T15:56:46.980Z,0.90
2017-10-05T16:00:50.739Z,1.00
2017-10-05T16:04:54.975Z,0.90
2017-10-05T16:08:58.787Z,1.50
2017-10-05T16:13:03.082Z,1.00
2017-10-05T16:17:06.919Z,1.00
2017-10-05T16:21:11.138Z,1.23
2017-10-05T16:25:15.675Z,1.20
2017-10-05T16:29:19.882Z,1.10
2017-10-05T16:33:23.726Z,0.80
2017-10-05T16:37:27.942Z,1.07
2017-10-05T16:41:32.470Z,1.20
2017-10-05T16:45:36.654Z,1.10
2017-10-05T16:49:40.428Z,1.20
2017-10-05T16:53:43.888Z,1.20
2017-10-05T16:57:47.730Z,1.10
2017-10-05T17:01:51.959Z,1.47
2017-10-05T17:05:56.496Z,1.60
2017-10-05T17:10:00.706Z,1.20
2017-10-05T17:14:04.645Z,1.40
2017-10-05T17:18:08.868Z,1.40
2017-10-05T17:22:13.437Z,1.60
2017-10-05T17:26:16.894Z,1.10
2017-10-05T17:30:21.434Z,1.10
2017-10-05T17:34:25.655Z,1.17
2017-10-05T17:38:30.194Z,1.53
2017-10-05T17:42:34.412Z,1.60
2017-10-05T17:46:38.961Z,1.43
2017-10-05T17:50:42.521Z,1.87
2017-10-05T17:54:46.385Z,1.57
2017-10-05T17:58:49.816Z,1.40
2017-10-05T18:02:53.598Z,1.77
2017-10-05T18:06:57.822Z,1.53
2017-10-05T18:11:02.372Z,1.13
2017-10-05T18:15:05.822Z,1.30
2017-10-05T18:19:09.683Z,1.70
2017-10-05T18:23:13.905Z,1.60
2017-10-05T18:27:18.147Z,1.47
2017-10-05T18:31:21.615Z,1.53
2017-10-05T18:35:25.090Z,1.53
2017-10-05T18:39:28.547Z,1.40
2017-10-05T18:43:32.795Z,1.53
2017-10-05T18:47:36.262Z,1.60
2017-10-05T18:51:39.736Z,1.10
2017-10-05T18:55:43.161Z,1.40
2017-10-05T18:59:46.643Z,1.30
2017-10-05T19:03:50.095Z,1.80
2017-10-05T19:07:53.575Z,1.60
2017-10-05T19:11:57.043Z,1.57
2017-10-05T19:16:00.535Z,1.40
2017-10-05T19:20:04.770Z,1.60
2017-10-05T19:24:08.267Z,1.60
2017-10-05T19:28:12.494Z,2.00
2017-10-05T19:32:17.087Z,1.50
2017-10-05T19:36:20.557Z,1.40
2017-10-05T19:40:24.030Z,1.50
2017-10-05T19:44:28.255Z,1.10
2017-10-05T19:48:32.500Z,1.70
2017-10-05T19:52:35.953Z,1.80
2017-10-05T19:56:39.716Z,1.20
2017-10-05T20:00:43.936Z,1.57
2017-10-05T20:04:48.181Z,1.67
2017-10-05T20:08:51.633Z,1.87
2017-10-05T20:12:55.386Z,1.53
2017-10-05T20:17:00.506Z,1.57
2017-10-05T20:25:53.723Z,1.30
2017-10-05T20:30:15.055Z,1.57
2017-10-05T20:34:19.279Z,1.47
2017-10-05T20:38:23.527Z,1.63
2017-10-05T20:42:27.008Z,1.33
2017-10-05T20:46:31.257Z,1.30
2017-10-05T20:50:34.842Z,2.07
2017-10-05T20:54:39.083Z,2.30
2017-10-05T20:58:42.610Z,1.80
2017-10-05T21:02:46.082Z,2.10
2017-10-05T21:06:50.422Z,1.90
2017-10-05T21:10:54.959Z,2.00
2017-10-05T21:14:58.422Z,2.00
2017-10-05T21:19:01.911Z,1.93
2017-10-05T21:23:05.368Z,2.10
2017-10-05T21:27:09.908Z,1.93
2017-10-05T21:31:13.368Z,2.27
2017-10-05T21:35:17.131Z,1.97
2017-10-05T21:39:20.599Z,2.43
2017-10-05T21:43:24.090Z,1.50
2017-10-05T21:47:27.542Z,2.00
2017-10-05T21:51:31.791Z,2.03
2017-10-05T21:55:35.243Z,1.63
2017-10-05T21:59:38.732Z,2.00
2017-10-05T22:03:42.188Z,2.20
2017-10-05T22:07:46.421Z,2.17
2017-10-05T22:11:50.652Z,1.53
2017-10-05T22:15:54.121Z,1.57
2017-10-05T22:19:57.562Z,1.83
2017-10-05T22:24:01.804Z,1.60
2017-10-05T22:28:05.288Z,1.60
2017-10-05T22:32:09.535Z,1.80
2017-10-05T22:36:12.998Z,1.70
2017-10-05T22:40:16.473Z,1.67
2017-10-05T22:44:19.927Z,1.70
2017-10-05T22:48:24.175Z,1.80
2017-10-05T22:52:27.618Z,1.50
2017-10-05T22:56:31.078Z,1.80
2017-10-05T23:00:35.298Z,1.50
2017-10-05T23:04:39.533Z,1.70
2017-10-05T23:08:42.978Z,1.60
2017-10-05T23:12:46.753Z,1.53
2017-10-05T23:16:50.208Z,1.50
2017-10-05T23:20:53.694Z,1.40
2017-10-05T23:24:57.142Z,1.50
2017-10-05T23:29:00.975Z,1.53
2017-10-05T23:33:05.209Z,1.57
2017-10-05T23:37:09.743Z,1.53
2017-10-05T23:41:13.991Z,1.60
2017-10-05T23:45:17.479Z,1.30
2017-10-05T23:49:21.699Z,2.03
2017-10-05T23:53:25.948Z,1.40
2017-10-05T23:57:29.394Z,1.70
